sensor_id;sensor_type;location;lat;lon;timestamp;pressure;altitude;pressure_sealevel;temperature;humidity
60874;BME280;46715;40.642;-7.920;2024-02-26T00:01:32;74065.69;;;-146.45;100.00
60874;BME280;46715;40.642;-7.920;2024-02-26T00:03:33;74061.72;;;-146.45;100.00
60874;BME280;46715;40.642;-7.920;2024-02-26T00:05:36;74065.69;;;-146.45;100.00
60874;BME280;46715;40.642;-7.920;2024-02-26T00:07:38;74103.47;;;-146.45;100.00
60874;BME280;46715;40.642;-7.920;2024-02-26T00:09:39;74113.41;;;-146.45;100.00
60874;BME280;46715;40.642;-7.920;2024-02-26T00:11:40;74119.38;;;-146.45;100.00
60874;BME280;46715;40.642;-7.920;2024-02-26T00:13:44;74093.53;;;-146.45;100.00
60874;BME280;46715;40.642;-7.920;2024-02-26T00:15:45;74085.59;;;-146.45;100.00
60874;BME280;46715;40.642;-7.920;2024-02-26T00:17:45;74079.63;;;-146.45;100.00
60874;BME280;46715;40.642;-7.920;2024-02-26T00:19:46;74075.63;;;-146.45;100.00
60874;BME280;46715;40.642;-7.920;2024-02-26T00:21:47;74069.69;;;-146.45;100.00
60874;BME280;46715;40.642;-7.920;2024-02-26T00:23:49;74057.75;;;-146.45;100.00
60874;BME280;46715;40.642;-7.920;2024-02-26T00:25:51;74059.72;;;-146.45;100.00
60874;BME280;46715;40.642;-7.920;2024-02-26T00:27:52;74053.75;;;-146.45;100.00
60874;BME280;46715;40.642;-7.920;2024-02-26T00:29:52;74039.84;;;-146.45;100.00
60874;BME280;46715;40.642;-7.920;2024-02-26T00:31:53;74059.72;;;-146.45;100.00
60874;BME280;46715;40.642;-7.920;2024-02-26T00:33:54;74059.72;;;-146.45;100.00
60874;BME280;46715;40.642;-7.920;2024-02-26T00:35:55;74073.66;;;-146.45;100.00
60874;BME280;46715;40.642;-7.920;2024-02-26T00:37:55;74077.63;;;-146.45;100.00
60874;BME280;46715;40.642;-7.920;2024-02-26T00:39:56;74053.75;;;-146.45;100.00
60874;BME280;46715;40.642;-7.920;2024-02-26T00:41:57;74041.84;;;-146.45;100.00
60874;BME280;46715;40.642;-7.920;2024-02-26T00:43:57;74041.84;;;-146.45;100.00
60874;BME280;46715;40.642;-7.920;2024-02-26T00:45:59;74045.81;;;-146.45;100.00
60874;BME280;46715;40.642;-7.920;2024-02-26T00:47:59;74035.88;;;-146.45;100.00
60874;BME280;46715;40.642;-7.920;2024-02-26T00:50:06;74045.81;;;-146.45;100.00
60874;BME280;46715;40.642;-7.920;2024-02-26T00:52:07;74049.78;;;-146.45;100.00
60874;BME280;46715;40.642;-7.920;2024-02-26T00:54:08;74047.81;;;-146.45;100.00
60874;BME280;46715;40.642;-7.920;2024-02-26T00:56:08;74051.78;;;-146.45;100.00
60874;BME280;46715;40.642;-7.920;2024-02-26T00:58:09;74045.81;;;-146.45;100.00
60874;BME280;46715;40.642;-7.920;2024-02-26T01:00:11;74045.81;;;-146.45;100.00
60874;BME280;46715;40.642;-7.920;2024-02-26T01:02:12;74033.88;;;-146.45;100.00
60874;BME280;46715;40.642;-7.920;2024-02-26T01:04:12;74031.91;;;-146.45;100.00
60874;BME280;46715;40.642;-7.920;2024-02-26T01:06:13;74045.81;;;-146.45;100.00
60874;BME280;46715;40.642;-7.920;2024-02-26T01:08:14;74045.81;;;-146.45;100.00
60874;BME280;46715;40.642;-7.920;2024-02-26T01:10:15;74063.72;;;-146.45;100.00
60874;BME280;46715;40.642;-7.920;2024-02-26T01:12:16;74061.72;;;-146.45;100.00
60874;BME280;46715;40.642;-7.920;2024-02-26T01:14:19;74059.72;;;-146.45;100.00
60874;BME280;46715;40.642;-7.920;2024-02-26T01:16:20;74061.72;;;-146.45;100.00
60874;BME280;46715;40.642;-7.920;2024-02-26T01:18:21;74067.69;;;-146.45;100.00
60874;BME280;46715;40.642;-7.920;2024-02-26T01:20:22;74063.72;;;-146.45;100.00
60874;BME280;46715;40.642;-7.920;2024-02-26T01:22:23;74071.66;;;-146.45;100.00
60874;BME280;46715;40.642;-7.920;2024-02-26T01:24:24;74075.63;;;-146.45;100.00
60874;BME280;46715;40.642;-7.920;2024-02-26T01:26:24;74071.66;;;-146.45;100.00
60874;BME280;46715;40.642;-7.920;2024-02-26T01:28:25;74063.72;;;-146.45;100.00
60874;BME280;46715;40.642;-7.920;2024-02-26T01:30:26;74061.72;;;-146.45;100.00
60874;BME280;46715;40.642;-7.920;2024-02-26T01:32:26;74081.59;;;-146.45;100.00
60874;BME280;46715;40.642;-7.920;2024-02-26T01:34:27;74083.59;;;-146.45;100.00
60874;BME280;46715;40.642;-7.920;2024-02-26T01:36:28;74079.63;;;-146.45;100.00
60874;BME280;46715;40.642;-7.920;2024-02-26T01:38:29;74081.59;;;-146.45;100.00
60874;BME280;46715;40.642;-7.920;2024-02-26T01:40:30;74081.59;;;-146.45;100.00
60874;BME280;46715;40.642;-7.920;2024-02-26T01:42:30;74083.59;;;-146.45;100.00
60874;BME280;46715;40.642;-7.920;2024-02-26T01:44:32;74089.56;;;-146.45;100.00
60874;BME280;46715;40.642;-7.920;2024-02-26T01:46:34;74083.59;;;-146.45;100.00
60874;BME280;46715;40.642;-7.920;2024-02-26T01:48:36;74089.56;;;-146.45;100.00
60874;BME280;46715;40.642;-7.920;2024-02-26T01:50:37;74091.53;;;-146.45;100.00
60874;BME280;46715;40.642;-7.920;2024-02-26T01:52:38;74109.44;;;-146.45;100.00
60874;BME280;46715;40.642;-7.920;2024-02-26T01:54:40;74091.53;;;-146.45;100.00
60874;BME280;46715;40.642;-7.920;2024-02-26T01:56:41;74077.63;;;-146.45;100.00
60874;BME280;46715;40.642;-7.920;2024-02-26T01:58:42;74073.66;;;-146.45;100.00
60874;BME280;46715;40.642;-7.920;2024-02-26T02:00:44;74075.63;;;-146.45;100.00
60874;BME280;46715;40.642;-7.920;2024-02-26T02:02:45;74075.63;;;-146.45;100.00
60874;BME280;46715;40.642;-7.920;2024-02-26T02:04:47;74093.53;;;-146.45;100.00
60874;BME280;46715;40.642;-7.920;2024-02-26T02:06:48;74099.50;;;-146.45;100.00
60874;BME280;46715;40.642;-7.920;2024-02-26T02:08:49;74107.44;;;-146.45;100.00
60874;BME280;46715;40.642;-7.920;2024-02-26T02:10:50;74089.56;;;-146.45;100.00
60874;BME280;46715;40.642;-7.920;2024-02-26T02:12:51;74081.59;;;-146.45;100.00
60874;BME280;46715;40.642;-7.920;2024-02-26T02:14:55;74093.53;;;-146.45;96.64
60874;BME280;46715;40.642;-7.920;2024-02-26T02:16:56;74083.59;;;-146.45;96.91
60874;BME280;46715;40.642;-7.920;2024-02-26T02:18:58;74113.41;;;-146.45;99.62
60874;BME280;46715;40.642;-7.920;2024-02-26T02:21:01;74137.28;;;-146.45;98.76
60874;BME280;46715;40.642;-7.920;2024-02-26T02:23:03;74127.34;;;-146.45;97.13
60874;BME280;46715;40.642;-7.920;2024-02-26T02:25:04;74141.25;;;-146.45;98.38
60874;BME280;46715;40.642;-7.920;2024-02-26T02:27:05;74145.22;;;-146.45;98.46
60874;BME280;46715;40.642;-7.920;2024-02-26T02:29:06;74143.25;;;-146.45;98.81
60874;BME280;46715;40.642;-7.920;2024-02-26T02:31:07;74145.22;;;-146.45;97.29
60874;BME280;46715;40.642;-7.920;2024-02-26T02:33:08;74145.22;;;-146.45;96.32
60874;BME280;46715;40.642;-7.920;2024-02-26T02:35:10;74157.16;;;-146.45;97.24
60874;BME280;46715;40.642;-7.920;2024-02-26T02:37:10;74153.19;;;-146.45;96.74
60874;BME280;46715;40.642;-7.920;2024-02-26T02:39:11;74155.16;;;-146.45;93.73
60874;BME280;46715;40.642;-7.920;2024-02-26T02:41:12;74155.16;;;-146.45;93.76
60874;BME280;46715;40.642;-7.920;2024-02-26T02:43:13;74147.22;;;-146.45;92.54
60874;BME280;46715;40.642;-7.920;2024-02-26T02:45:14;74155.16;;;-146.45;93.53
60874;BME280;46715;40.642;-7.920;2024-02-26T02:47:15;74167.09;;;-146.45;92.18
60874;BME280;46715;40.642;-7.920;2024-02-26T02:49:15;74177.03;;;-146.45;94.18
60874;BME280;46715;40.642;-7.920;2024-02-26T02:51:17;74175.06;;;-146.45;91.81
60874;BME280;46715;40.642;-7.920;2024-02-26T02:53:18;74177.03;;;-146.45;92.43
60874;BME280;46715;40.642;-7.920;2024-02-26T02:55:19;74185.00;;;-146.45;92.71
60874;BME280;46715;40.642;-7.920;2024-02-26T02:57:20;74173.06;;;-146.45;91.75
60874;BME280;46715;40.642;-7.920;2024-02-26T02:59:21;74177.03;;;-146.45;91.71
60874;BME280;46715;40.642;-7.920;2024-02-26T03:01:22;74177.03;;;-146.45;89.35
60874;BME280;46715;40.642;-7.920;2024-02-26T03:03:22;74169.09;;;-146.45;89.45
60874;BME280;46715;40.642;-7.920;2024-02-26T03:05:24;74190.97;;;-146.45;90.70
60874;BME280;46715;40.642;-7.920;2024-02-26T03:07:25;74196.94;;;-146.45;90.53
60874;BME280;46715;40.642;-7.920;2024-02-26T03:09:26;74214.81;;;-146.45;89.16
60874;BME280;46715;40.642;-7.920;2024-02-26T03:11:27;74210.84;;;-146.45;89.25
60874;BME280;46715;40.642;-7.920;2024-02-26T03:13:27;74196.94;;;-146.45;88.12
60874;BME280;46715;40.642;-7.920;2024-02-26T03:15:28;74190.97;;;-146.45;87.59
60874;BME280;46715;40.642;-7.920;2024-02-26T03:17:29;74190.97;;;-146.45;86.00
60874;BME280;46715;40.642;-7.920;2024-02-26T03:19:30;74188.97;;;-146.45;86.72
60874;BME280;46715;40.642;-7.920;2024-02-26T03:21:31;74185.00;;;-146.45;87.59
60874;BME280;46715;40.642;-7.920;2024-02-26T03:23:31;74192.94;;;-146.45;87.44
60874;BME280;46715;40.642;-7.920;2024-02-26T03:25:36;74173.06;;;-146.45;86.14
60874;BME280;46715;40.642;-7.920;2024-02-26T03:27:37;74173.06;;;-146.45;86.17
60874;BME280;46715;40.642;-7.920;2024-02-26T03:29:38;74187.00;;;-146.45;85.65
60874;BME280;46715;40.642;-7.920;2024-02-26T03:31:39;74188.97;;;-146.45;84.58
60874;BME280;46715;40.642;-7.920;2024-02-26T03:33:39;74188.97;;;-146.45;85.90
60874;BME280;46715;40.642;-7.920;2024-02-26T03:35:40;74190.97;;;-146.45;87.11
60874;BME280;46715;40.642;-7.920;2024-02-26T03:37:41;74179.03;;;-146.45;85.92
60874;BME280;46715;40.642;-7.920;2024-02-26T03:39:42;74161.13;;;-146.45;82.54
60874;BME280;46715;40.642;-7.920;2024-02-26T03:41:42;74159.16;;;-146.45;81.69
60874;BME280;46715;40.642;-7.920;2024-02-26T03:43:43;74149.22;;;-146.45;80.51
60874;BME280;46715;40.642;-7.920;2024-02-26T03:45:45;74161.13;;;-146.45;80.81
60874;BME280;46715;40.642;-7.920;2024-02-26T03:47:46;74163.13;;;-146.45;82.07
60874;BME280;46715;40.642;-7.920;2024-02-26T03:49:47;74157.16;;;-146.45;80.19
60874;BME280;46715;40.642;-7.920;2024-02-26T03:51:48;74157.16;;;-146.45;81.65
60874;BME280;46715;40.642;-7.920;2024-02-26T03:53:50;74143.25;;;-146.45;81.78
60874;BME280;46715;40.642;-7.920;2024-02-26T03:55:51;74145.22;;;-146.45;82.11
60874;BME280;46715;40.642;-7.920;2024-02-26T03:57:53;74133.31;;;-146.45;82.65
60874;BME280;46715;40.642;-7.920;2024-02-26T03:59:53;74147.22;;;-146.45;86.17
60874;BME280;46715;40.642;-7.920;2024-02-26T04:01:54;74155.16;;;-146.45;86.65
60874;BME280;46715;40.642;-7.920;2024-02-26T04:03:56;74163.13;;;-146.45;87.23
60874;BME280;46715;40.642;-7.920;2024-02-26T04:05:57;74157.16;;;-146.45;87.89
60874;BME280;46715;40.642;-7.920;2024-02-26T04:07:58;74165.13;;;-146.45;88.44
60874;BME280;46715;40.642;-7.920;2024-02-26T04:09:58;74165.13;;;-146.45;88.40
60874;BME280;46715;40.642;-7.920;2024-02-26T04:11:59;74165.13;;;-146.45;89.30
60874;BME280;46715;40.642;-7.920;2024-02-26T04:14:00;74171.09;;;-146.45;89.95
60874;BME280;46715;40.642;-7.920;2024-02-26T04:16:01;74169.09;;;-146.45;90.22
60874;BME280;46715;40.642;-7.920;2024-02-26T04:18:03;74173.06;;;-146.45;90.72
60874;BME280;46715;40.642;-7.920;2024-02-26T04:20:04;74185.00;;;-146.45;91.10
60874;BME280;46715;40.642;-7.920;2024-02-26T04:22:10;74179.03;;;-146.45;90.17
60874;BME280;46715;40.642;-7.920;2024-02-26T04:24:10;74181.03;;;-146.45;90.43
60874;BME280;46715;40.642;-7.920;2024-02-26T04:26:11;74175.06;;;-146.45;89.98
60874;BME280;46715;40.642;-7.920;2024-02-26T04:28:12;74188.97;;;-146.45;91.16
60874;BME280;46715;40.642;-7.920;2024-02-26T04:30:13;74200.91;;;-146.45;90.91
60874;BME280;46715;40.642;-7.920;2024-02-26T04:32:18;74204.88;;;-146.45;91.05
60874;BME280;46715;40.642;-7.920;2024-02-26T04:34:18;74204.88;;;-146.45;90.46
60874;BME280;46715;40.642;-7.920;2024-02-26T04:36:19;74216.81;;;-146.45;87.17
60874;BME280;46715;40.642;-7.920;2024-02-26T04:38:20;74216.81;;;-146.45;88.52
60874;BME280;46715;40.642;-7.920;2024-02-26T04:40:21;74216.81;;;-146.45;88.86
60874;BME280;46715;40.642;-7.920;2024-02-26T04:42:22;74204.88;;;-146.45;87.40
60874;BME280;46715;40.642;-7.920;2024-02-26T04:44:23;74192.94;;;-146.45;85.36
60874;BME280;46715;40.642;-7.920;2024-02-26T04:46:23;74194.94;;;-146.45;86.14
60874;BME280;46715;40.642;-7.920;2024-02-26T04:48:24;74202.91;;;-146.45;86.78
60874;BME280;46715;40.642;-7.920;2024-02-26T04:50:25;74198.91;;;-146.45;86.37
60874;BME280;46715;40.642;-7.920;2024-02-26T04:52:26;74206.88;;;-146.45;84.33
60874;BME280;46715;40.642;-7.920;2024-02-26T04:54:26;74214.81;;;-146.45;81.70
60874;BME280;46715;40.642;-7.920;2024-02-26T04:56:27;74218.81;;;-146.45;83.89
60874;BME280;46715;40.642;-7.920;2024-02-26T04:58:28;74214.81;;;-146.45;83.99
60874;BME280;46715;40.642;-7.920;2024-02-26T05:00:29;74220.78;;;-146.45;84.47
60874;BME280;46715;40.642;-7.920;2024-02-26T05:02:30;74218.81;;;-146.45;84.97
60874;BME280;46715;40.642;-7.920;2024-02-26T05:04:32;74216.81;;;-146.45;84.50
60874;BME280;46715;40.642;-7.920;2024-02-26T05:06:33;74212.84;;;-146.45;83.96
60874;BME280;46715;40.642;-7.920;2024-02-26T05:08:34;74218.81;;;-146.45;83.96
60874;BME280;46715;40.642;-7.920;2024-02-26T05:10:39;74200.91;;;-146.45;82.74
60874;BME280;46715;40.642;-7.920;2024-02-26T05:12:41;74224.75;;;-146.45;83.41
60874;BME280;46715;40.642;-7.920;2024-02-26T05:14:43;74220.78;;;-146.45;83.20
60874;BME280;46715;40.642;-7.920;2024-02-26T05:16:44;74226.75;;;-146.45;84.34
60874;BME280;46715;40.642;-7.920;2024-02-26T05:18:44;74218.81;;;-146.45;83.21
60874;BME280;46715;40.642;-7.920;2024-02-26T05:20:45;74216.81;;;-146.45;82.99
60874;BME280;46715;40.642;-7.920;2024-02-26T05:22:46;74228.75;;;-146.45;84.83
60874;BME280;46715;40.642;-7.920;2024-02-26T05:24:48;74226.75;;;-146.45;83.90
60874;BME280;46715;40.642;-7.920;2024-02-26T05:26:49;74246.63;;;-146.45;85.52
60874;BME280;46715;40.642;-7.920;2024-02-26T05:28:50;74238.69;;;-146.45;85.38
60874;BME280;46715;40.642;-7.920;2024-02-26T05:30:50;74264.53;;;-146.45;87.80
60874;BME280;46715;40.642;-7.920;2024-02-26T05:32:51;74270.50;;;-146.45;88.42
60874;BME280;46715;40.642;-7.920;2024-02-26T05:34:52;74264.53;;;-146.45;89.18
60874;BME280;46715;40.642;-7.920;2024-02-26T05:36:53;74278.44;;;-146.45;89.71
60874;BME280;46715;40.642;-7.920;2024-02-26T05:38:54;74300.31;;;-146.45;90.31
60874;BME280;46715;40.642;-7.920;2024-02-26T05:40:55;74320.22;;;-146.45;88.38
60874;BME280;46715;40.642;-7.920;2024-02-26T05:42:56;74328.16;;;-146.45;89.18
60874;BME280;46715;40.642;-7.920;2024-02-26T05:44:56;74334.13;;;-146.45;89.83
60874;BME280;46715;40.642;-7.920;2024-02-26T05:46:58;74318.22;;;-146.45;89.81
60874;BME280;46715;40.642;-7.920;2024-02-26T05:48:58;74326.19;;;-146.45;88.32
60874;BME280;46715;40.642;-7.920;2024-02-26T05:50:59;74336.13;;;-146.45;88.45
60874;BME280;46715;40.642;-7.920;2024-02-26T05:53:00;74346.06;;;-146.45;89.89
60874;BME280;46715;40.642;-7.920;2024-02-26T05:55:01;74350.03;;;-146.45;89.25
60874;BME280;46715;40.642;-7.920;2024-02-26T05:57:02;74350.03;;;-146.45;90.30
60874;BME280;46715;40.642;-7.920;2024-02-26T05:59:02;74361.97;;;-146.45;90.70
60874;BME280;46715;40.642;-7.920;2024-02-26T06:01:03;74363.97;;;-146.45;90.86
60874;BME280;46715;40.642;-7.920;2024-02-26T06:03:04;74369.91;;;-146.45;91.66
60874;BME280;46715;40.642;-7.920;2024-02-26T06:05:05;74363.97;;;-146.45;90.64
60874;BME280;46715;40.642;-7.920;2024-02-26T06:07:07;74373.91;;;-146.45;90.78
60874;BME280;46715;40.642;-7.920;2024-02-26T06:09:09;74367.94;;;-146.45;91.87
60874;BME280;46715;40.642;-7.920;2024-02-26T06:11:11;74377.88;;;-146.45;92.14
60874;BME280;46715;40.642;-7.920;2024-02-26T06:13:12;74371.91;;;-146.45;92.07
60874;BME280;46715;40.642;-7.920;2024-02-26T06:15:13;74375.88;;;-146.45;90.23
60874;BME280;46715;40.642;-7.920;2024-02-26T06:17:14;74379.88;;;-146.45;89.69
60874;BME280;46715;40.642;-7.920;2024-02-26T06:19:14;74395.78;;;-146.45;90.26
60874;BME280;46715;40.642;-7.920;2024-02-26T06:21:15;74393.78;;;-146.45;90.09
60874;BME280;46715;40.642;-7.920;2024-02-26T06:23:16;74395.78;;;-146.45;89.44
60874;BME280;46715;40.642;-7.920;2024-02-26T06:25:17;74403.72;;;-146.45;90.77
60874;BME280;46715;40.642;-7.920;2024-02-26T06:27:17;74403.72;;;-146.45;89.37
60874;BME280;46715;40.642;-7.920;2024-02-26T06:29:18;74411.69;;;-146.45;90.05
60874;BME280;46715;40.642;-7.920;2024-02-26T06:31:19;74401.75;;;-146.45;90.57
60874;BME280;46715;40.642;-7.920;2024-02-26T06:33:21;74435.53;;;-146.45;91.85
60874;BME280;46715;40.642;-7.920;2024-02-26T06:35:21;74449.47;;;-146.45;92.79
60874;BME280;46715;40.642;-7.920;2024-02-26T06:37:22;74459.41;;;-146.45;93.41
60874;BME280;46715;40.642;-7.920;2024-02-26T06:39:23;74461.38;;;-146.45;94.47
60874;BME280;46715;40.642;-7.920;2024-02-26T06:41:24;74465.38;;;-146.45;94.27
60874;BME280;46715;40.642;-7.920;2024-02-26T06:43:28;74473.31;;;-146.45;95.40
60874;BME280;46715;40.642;-7.920;2024-02-26T06:45:29;74483.28;;;-146.45;95.41
60874;BME280;46715;40.642;-7.920;2024-02-26T06:47:29;74483.28;;;-146.45;94.36
60874;BME280;46715;40.642;-7.920;2024-02-26T06:49:34;74483.28;;;-146.45;93.34
60874;BME280;46715;40.642;-7.920;2024-02-26T06:51:34;74481.28;;;-146.45;92.95
60874;BME280;46715;40.642;-7.920;2024-02-26T06:53:35;74489.22;;;-146.45;92.28
60874;BME280;46715;40.642;-7.920;2024-02-26T06:55:36;74495.19;;;-146.45;93.76
60874;BME280;46715;40.642;-7.920;2024-02-26T06:57:40;74503.16;;;-146.45;91.56
60874;BME280;46715;40.642;-7.920;2024-02-26T06:59:41;74487.25;;;-146.45;89.24
60874;BME280;46715;40.642;-7.920;2024-02-26T07:01:46;74497.19;;;-146.45;90.89
60874;BME280;46715;40.642;-7.920;2024-02-26T07:03:47;74499.19;;;-146.45;89.64
60874;BME280;46715;40.642;-7.920;2024-02-26T07:05:48;74503.16;;;-146.45;89.68
60874;BME280;46715;40.642;-7.920;2024-02-26T07:07:49;74503.16;;;-146.45;89.47
60874;BME280;46715;40.642;-7.920;2024-02-26T07:09:49;74497.19;;;-146.45;87.40
60874;BME280;46715;40.642;-7.920;2024-02-26T07:11:50;74503.16;;;-146.45;88.29
60874;BME280;46715;40.642;-7.920;2024-02-26T07:13:51;74501.16;;;-146.45;87.86
60874;BME280;46715;40.642;-7.920;2024-02-26T07:15:51;74493.22;;;-146.45;87.25
60874;BME280;46715;40.642;-7.920;2024-02-26T07:17:52;74495.19;;;-146.45;87.85
60874;BME280;46715;40.642;-7.920;2024-02-26T07:19:53;74503.16;;;-146.45;87.79
60874;BME280;46715;40.642;-7.920;2024-02-26T07:21:54;74505.13;;;-146.45;88.38
60874;BME280;46715;40.642;-7.920;2024-02-26T07:23:55;74505.13;;;-146.45;88.92
60874;BME280;46715;40.642;-7.920;2024-02-26T07:25:56;74499.19;;;-146.45;88.57
60874;BME280;46715;40.642;-7.920;2024-02-26T07:27:57;74505.13;;;-146.45;89.37
60874;BME280;46715;40.642;-7.920;2024-02-26T07:29:57;74521.06;;;-146.45;89.08
60874;BME280;46715;40.642;-7.920;2024-02-26T07:31:58;74521.06;;;-146.45;90.54
60874;BME280;46715;40.642;-7.920;2024-02-26T07:33:59;74529.00;;;-146.45;90.20
60874;BME280;46715;40.642;-7.920;2024-02-26T07:36:00;74538.94;;;-146.45;90.78
60874;BME280;46715;40.642;-7.920;2024-02-26T07:38:00;74529.00;;;-146.45;91.04
60874;BME280;46715;40.642;-7.920;2024-02-26T07:40:01;74529.00;;;-146.45;87.99
60874;BME280;46715;40.642;-7.920;2024-02-26T07:42:02;74507.13;;;-146.45;89.01
60874;BME280;46715;40.642;-7.920;2024-02-26T07:44:03;74519.06;;;-146.45;88.11
60874;BME280;46715;40.642;-7.920;2024-02-26T07:46:04;74477.31;;;-146.45;86.74
60874;BME280;46715;40.642;-7.920;2024-02-26T07:48:05;74397.75;;;-146.45;82.96
60874;BME280;46715;40.642;-7.920;2024-02-26T07:50:07;74324.19;;;-146.45;79.08
60874;BME280;46715;40.642;-7.920;2024-02-26T07:52:09;74290.38;;;-146.45;75.17
60874;BME280;46715;40.642;-7.920;2024-02-26T07:54:10;74286.41;;;-146.45;73.48
60874;BME280;46715;40.642;-7.920;2024-02-26T07:56:10;74332.13;;;-146.45;73.69
60874;BME280;46715;40.642;-7.920;2024-02-26T07:58:11;74344.06;;;-146.45;74.52
60874;BME280;46715;40.642;-7.920;2024-02-26T08:00:13;74318.22;;;-146.45;73.60
60874;BME280;46715;40.642;-7.920;2024-02-26T08:02:17;74254.59;;;-146.45;70.95
60874;BME280;46715;40.642;-7.920;2024-02-26T08:04:17;74145.22;;;-146.45;68.81
60874;BME280;46715;40.642;-7.920;2024-02-26T08:06:18;74123.34;;;-146.45;65.19
60874;BME280;46715;40.642;-7.920;2024-02-26T08:08:20;74091.53;;;-146.45;60.66
60874;BME280;46715;40.642;-7.920;2024-02-26T08:10:22;74175.06;;;-146.45;63.11
60874;BME280;46715;40.642;-7.920;2024-02-26T08:22:12;74405.72;;;-146.45;73.04
60874;BME280;46715;40.642;-7.920;2024-02-26T08:24:19;74377.88;;;-146.45;72.93
60874;BME280;46715;40.642;-7.920;2024-02-26T08:26:41;74371.91;;;-146.45;70.26
60874;BME280;46715;40.642;-7.920;2024-02-26T08:29:03;74423.63;;;-146.45;72.91
60874;BME280;46715;40.642;-7.920;2024-02-26T08:31:13;74421.63;;;-146.45;72.69
60874;BME280;46715;40.642;-7.920;2024-02-26T08:33:17;74413.66;;;-146.45;71.71
60874;BME280;46715;40.642;-7.920;2024-02-26T08:36:06;74316.22;;;-146.45;68.54
60874;BME280;46715;40.642;-7.920;2024-02-26T08:38:07;74234.72;;;-146.45;64.64
60874;BME280;46715;40.642;-7.920;2024-02-26T08:40:08;74188.97;;;-146.45;63.04
60874;BME280;46715;40.642;-7.920;2024-02-26T08:42:09;74161.13;;;-146.45;63.33
60874;BME280;46715;40.642;-7.920;2024-02-26T08:44:10;74143.25;;;-146.45;61.80
60874;BME280;46715;40.642;-7.920;2024-02-26T08:46:12;74133.31;;;-146.45;61.77
60874;BME280;46715;40.642;-7.920;2024-02-26T08:48:13;74155.16;;;-146.45;61.78
60874;BME280;46715;40.642;-7.920;2024-02-26T08:50:14;74179.03;;;-146.45;61.58
60874;BME280;46715;40.642;-7.920;2024-02-26T08:52:15;74214.81;;;-146.45;61.77
60874;BME280;46715;40.642;-7.920;2024-02-26T08:54:16;74159.16;;;-146.45;59.40
60874;BME280;46715;40.642;-7.920;2024-02-26T08:56:17;74234.72;;;-146.45;63.23
60874;BME280;46715;40.642;-7.920;2024-02-26T08:58:18;74194.94;;;-146.45;62.59
60874;BME280;46715;40.642;-7.920;2024-02-26T09:00:20;74171.09;;;-146.45;59.54
60874;BME280;46715;40.642;-7.920;2024-02-26T09:02:21;74149.22;;;-146.45;59.31
60874;BME280;46715;40.642;-7.920;2024-02-26T09:04:22;74061.72;;;-146.45;58.70
60874;BME280;46715;40.642;-7.920;2024-02-26T09:06:23;74063.72;;;-146.45;57.58
60874;BME280;46715;40.642;-7.920;2024-02-26T09:08:24;74127.34;;;-146.45;59.69
60874;BME280;46715;40.642;-7.920;2024-02-26T09:10:25;74129.31;;;-146.45;60.43
60874;BME280;46715;40.642;-7.920;2024-02-26T09:12:26;74147.22;;;-146.45;59.12
60874;BME280;46715;40.642;-7.920;2024-02-26T09:14:26;74153.19;;;-146.45;59.79
60874;BME280;46715;40.642;-7.920;2024-02-26T09:16:27;74133.31;;;-146.45;58.70
60874;BME280;46715;40.642;-7.920;2024-02-26T09:18:28;74181.03;;;-146.45;58.65
60874;BME280;46715;40.642;-7.920;2024-02-26T09:20:29;74198.91;;;-146.45;60.61
60874;BME280;46715;40.642;-7.920;2024-02-26T09:22:30;74157.16;;;-146.45;59.93
60874;BME280;46715;40.642;-7.920;2024-02-26T09:24:30;74077.63;;;-146.45;58.65
60874;BME280;46715;40.642;-7.920;2024-02-26T09:26:31;74061.72;;;-146.45;57.24
60874;BME280;46715;40.642;-7.920;2024-02-26T09:28:32;74027.91;;;-146.45;56.92
60874;BME280;46715;40.642;-7.920;2024-02-26T09:30:37;73972.25;;;-146.45;54.71
60874;BME280;46715;40.642;-7.920;2024-02-26T09:32:39;74051.78;;;-146.45;54.44
60874;BME280;46715;40.642;-7.920;2024-02-26T09:34:41;73998.09;;;-146.45;54.03
60874;BME280;46715;40.642;-7.920;2024-02-26T09:36:43;73984.19;;;-146.45;50.91
60874;BME280;46715;40.642;-7.920;2024-02-26T09:38:44;74053.75;;;-146.45;53.89
60874;BME280;46715;40.642;-7.920;2024-02-26T09:40:45;74067.69;;;-146.45;55.02
60874;BME280;46715;40.642;-7.920;2024-02-26T09:42:46;74053.75;;;-146.45;54.00
60874;BME280;46715;40.642;-7.920;2024-02-26T09:44:50;74053.75;;;-146.45;53.64
60874;BME280;46715;40.642;-7.920;2024-02-26T09:46:52;74025.94;;;-146.45;53.13
60874;BME280;46715;40.642;-7.920;2024-02-26T09:48:53;74047.81;;;-146.45;53.31
60874;BME280;46715;40.642;-7.920;2024-02-26T09:50:54;74155.16;;;-146.45;54.21
60874;BME280;46715;40.642;-7.920;2024-02-26T09:52:56;74214.81;;;-146.45;54.87
60874;BME280;46715;40.642;-7.920;2024-02-26T09:54:58;74252.59;;;-146.45;56.26
60874;BME280;46715;40.642;-7.920;2024-02-26T09:57:00;74254.59;;;-146.45;56.22
60874;BME280;46715;40.642;-7.920;2024-02-26T09:59:06;74264.53;;;-146.45;57.57
60874;BME280;46715;40.642;-7.920;2024-02-26T10:01:11;74270.50;;;-146.45;56.98
60874;BME280;46715;40.642;-7.920;2024-02-26T10:03:14;74272.50;;;-146.45;58.16
60874;BME280;46715;40.642;-7.920;2024-02-26T10:05:17;74272.50;;;-146.45;57.29
60874;BME280;46715;40.642;-7.920;2024-02-26T10:07:19;74270.50;;;-146.45;57.70
60874;BME280;46715;40.642;-7.920;2024-02-26T10:09:21;74322.19;;;-146.45;59.67
60874;BME280;46715;40.642;-7.920;2024-02-26T10:11:23;74318.22;;;-146.45;59.66
60874;BME280;46715;40.642;-7.920;2024-02-26T10:13:24;74318.22;;;-146.45;60.46
60874;BME280;46715;40.642;-7.920;2024-02-26T10:15:26;74312.25;;;-146.45;60.33
60874;BME280;46715;40.642;-7.920;2024-02-26T10:17:28;74332.13;;;-146.45;58.68
60874;BME280;46715;40.642;-7.920;2024-02-26T10:19:29;74352.03;;;-146.45;61.03
60874;BME280;46715;40.642;-7.920;2024-02-26T10:21:30;74409.69;;;-146.45;60.97
60874;BME280;46715;40.642;-7.920;2024-02-26T10:23:31;74427.59;;;-146.45;62.39
60874;BME280;46715;40.642;-7.920;2024-02-26T10:25:32;74429.56;;;-146.45;63.00
60874;BME280;46715;40.642;-7.920;2024-02-26T10:27:34;74423.63;;;-146.45;62.23